sensor_id;sensor_type;location;lat;lon;timestamp;temperature;humidity
3994;DHT22;2011;48.238;13.948;2023-02-12T00:00:43;4.40;99.90
3994;DHT22;2011;48.238;13.948;2023-02-12T00:03:10;4.40;99.90
3994;DHT22;2011;48.238;13.948;2023-02-12T00:05:38;4.40;99.90
3994;DHT22;2011;48.238;13.948;2023-02-12T00:08:06;4.30;99.90
3994;DHT22;2011;48.238;13.948;2023-02-12T00:10:33;4.30;99.90
3994;DHT22;2011;48.238;13.948;2023-02-12T00:13:00;4.30;99.90
3994;DHT22;2011;48.238;13.948;2023-02-12T00:15:27;4.30;99.90
3994;DHT22;2011;48.238;13.948;2023-02-12T00:17:53;4.30;99.90
3994;DHT22;2011;48.238;13.948;2023-02-12T00:20:20;4.30;99.90
3994;DHT22;2011;48.238;13.948;2023-02-12T00:22:49;4.30;99.90
3994;DHT22;2011;48.238;13.948;2023-02-12T00:25:16;4.20;99.90
3994;DHT22;2011;48.238;13.948;2023-02-12T00:27:43;4.20;99.90
3994;DHT22;2011;48.238;13.948;2023-02-12T00:30:11;4.20;99.90
3994;DHT22;2011;48.238;13.948;2023-02-12T00:32:38;4.20;99.90
3994;DHT22;2011;48.238;13.948;2023-02-12T00:35:05;4.10;99.90
3994;DHT22;2011;48.238;13.948;2023-02-12T00:37:32;4.10;99.90
3994;DHT22;2011;48.238;13.948;2023-02-12T00:40:01;4.10;99.90
3994;DHT22;2011;48.238;13.948;2023-02-12T00:42:28;4.00;99.90
3994;DHT22;2011;48.238;13.948;2023-02-12T00:44:55;4.00;99.90
3994;DHT22;2011;48.238;13.948;2023-02-12T00:47:22;4.00;99.90
3994;DHT22;2011;48.238;13.948;2023-02-12T00:49:48;4.00;99.90
3994;DHT22;2011;48.238;13.948;2023-02-12T00:52:15;3.90;99.90
3994;DHT22;2011;48.238;13.948;2023-02-12T00:54:42;3.90;99.90
3994;DHT22;2011;48.238;13.948;2023-02-12T00:57:11;3.90;99.90
3994;DHT22;2011;48.238;13.948;2023-02-12T00:59:37;3.90;99.90
3994;DHT22;2011;48.238;13.948;2023-02-12T01:02:06;3.90;99.90
3994;DHT22;2011;48.238;13.948;2023-02-12T01:04:33;3.90;99.90
3994;DHT22;2011;48.238;13.948;2023-02-12T01:07:00;3.90;99.90
3994;DHT22;2011;48.238;13.948;2023-02-12T01:09:27;3.90;99.90
3994;DHT22;2011;48.238;13.948;2023-02-12T01:11:54;3.90;99.90
3994;DHT22;2011;48.238;13.948;2023-02-12T01:14:22;4.00;99.90
3994;DHT22;2011;48.238;13.948;2023-02-12T01:16:49;3.90;99.90
3994;DHT22;2011;48.238;13.948;2023-02-12T01:19:16;4.00;99.90
3994;DHT22;2011;48.238;13.948;2023-02-12T01:21:43;4.00;99.90
3994;DHT22;2011;48.238;13.948;2023-02-12T01:24:10;4.00;99.90
3994;DHT22;2011;48.238;13.948;2023-02-12T01:26:37;4.10;99.90
3994;DHT22;2011;48.238;13.948;2023-02-12T01:29:06;4.00;99.90
3994;DHT22;2011;48.238;13.948;2023-02-12T01:31:36;4.10;99.90
3994;DHT22;2011;48.238;13.948;2023-02-12T01:34:04;4.10;99.90
3994;DHT22;2011;48.238;13.948;2023-02-12T01:36:31;4.10;99.90
3994;DHT22;2011;48.238;13.948;2023-02-12T01:38:58;4.10;99.90
3994;DHT22;2011;48.238;13.948;2023-02-12T01:41:28;4.10;99.90
3994;DHT22;2011;48.238;13.948;2023-02-12T01:44:06;4.00;99.90
3994;DHT22;2011;48.238;13.948;2023-02-12T01:46:35;4.00;99.90
3994;DHT22;2011;48.238;13.948;2023-02-12T01:49:03;4.00;99.90
3994;DHT22;2011;48.238;13.948;2023-02-12T01:51:32;4.00;99.90
3994;DHT22;2011;48.238;13.948;2023-02-12T01:54:04;4.00;99.90
3994;DHT22;2011;48.238;13.948;2023-02-12T01:56:32;3.90;99.90
3994;DHT22;2011;48.238;13.948;2023-02-12T01:59:00;3.90;99.90
3994;DHT22;2011;48.238;13.948;2023-02-12T02:01:29;3.90;99.90
3994;DHT22;2011;48.238;13.948;2023-02-12T02:04:01;3.90;99.90
3994;DHT22;2011;48.238;13.948;2023-02-12T02:06:31;3.90;99.90
3994;DHT22;2011;48.238;13.948;2023-02-12T02:09:00;3.80;99.90
3994;DHT22;2011;48.238;13.948;2023-02-12T02:11:27;3.80;99.90
3994;DHT22;2011;48.238;13.948;2023-02-12T02:14:12;3.80;99.90
3994;DHT22;2011;48.238;13.948;2023-02-12T02:23:14;3.70;99.90
3994;DHT22;2011;48.238;13.948;2023-02-12T02:26:03;3.70;99.90
3994;DHT22;2011;48.238;13.948;2023-02-12T02:28:56;3.70;99.90
3994;DHT22;2011;48.238;13.948;2023-02-12T02:31:30;3.70;99.90
3994;DHT22;2011;48.238;13.948;2023-02-12T02:34:08;3.70;99.90
3994;DHT22;2011;48.238;13.948;2023-02-12T02:36:43;3.70;99.90
3994;DHT22;2011;48.238;13.948;2023-02-12T02:39:16;3.60;99.90
3994;DHT22;2011;48.238;13.948;2023-02-12T02:41:55;3.60;99.90
3994;DHT22;2011;48.238;13.948;2023-02-12T02:44:25;3.60;99.90
3994;DHT22;2011;48.238;13.948;2023-02-12T02:46:56;3.60;99.90
3994;DHT22;2011;48.238;13.948;2023-02-12T02:49:26;3.60;99.90
3994;DHT22;2011;48.238;13.948;2023-02-12T02:51:56;3.50;99.90
3994;DHT22;2011;48.238;13.948;2023-02-12T02:54:29;3.50;99.90
3994;DHT22;2011;48.238;13.948;2023-02-12T02:57:02;3.50;99.90
3994;DHT22;2011;48.238;13.948;2023-02-12T02:59:34;3.50;99.90
3994;DHT22;2011;48.238;13.948;2023-02-12T03:02:06;3.50;99.90
3994;DHT22;2011;48.238;13.948;2023-02-12T03:04:38;3.50;99.90
3994;DHT22;2011;48.238;13.948;2023-02-12T03:07:10;3.60;99.90
3994;DHT22;2011;48.238;13.948;2023-02-12T03:09:42;3.60;99.90
3994;DHT22;2011;48.238;13.948;2023-02-12T03:12:13;3.50;99.90
3994;DHT22;2011;48.238;13.948;2023-02-12T03:14:43;3.50;99.90
3994;DHT22;2011;48.238;13.948;2023-02-12T03:17:17;3.50;99.90
3994;DHT22;2011;48.238;13.948;2023-02-12T03:19:50;3.50;99.90
3994;DHT22;2011;48.238;13.948;2023-02-12T03:22:22;3.40;99.90
3994;DHT22;2011;48.238;13.948;2023-02-12T03:24:55;3.40;99.90
3994;DHT22;2011;48.238;13.948;2023-02-12T03:27:28;3.40;99.90
3994;DHT22;2011;48.238;13.948;2023-02-12T03:29:56;3.40;99.90
3994;DHT22;2011;48.238;13.948;2023-02-12T03:32:29;3.40;99.90
3994;DHT22;2011;48.238;13.948;2023-02-12T03:35:08;3.40;99.90
3994;DHT22;2011;48.238;13.948;2023-02-12T03:37:40;3.40;99.90
3994;DHT22;2011;48.238;13.948;2023-02-12T03:40:15;3.40;99.90
3994;DHT22;2011;48.238;13.948;2023-02-12T03:42:50;3.40;99.90
3994;DHT22;2011;48.238;13.948;2023-02-12T03:45:29;3.40;99.90
3994;DHT22;2011;48.238;13.948;2023-02-12T03:48:07;3.50;99.90
3994;DHT22;2011;48.238;13.948;2023-02-12T03:50:39;3.50;99.90
3994;DHT22;2011;48.238;13.948;2023-02-12T03:53:08;3.70;99.90
3994;DHT22;2011;48.238;13.948;2023-02-12T03:55:39;3.60;99.90
3994;DHT22;2011;48.238;13.948;2023-02-12T03:58:09;3.60;99.90
3994;DHT22;2011;48.238;13.948;2023-02-12T04:00:39;3.60;99.90
3994;DHT22;2011;48.238;13.948;2023-02-12T04:03:07;3.50;99.90
3994;DHT22;2011;48.238;13.948;2023-02-12T04:05:35;3.50;99.90
3994;DHT22;2011;48.238;13.948;2023-02-12T04:08:04;3.50;99.90
3994;DHT22;2011;48.238;13.948;2023-02-12T04:10:37;3.50;99.90
3994;DHT22;2011;48.238;13.948;2023-02-12T04:13:11;3.50;99.90
3994;DHT22;2011;48.238;13.948;2023-02-12T04:15:50;3.50;99.90
3994;DHT22;2011;48.238;13.948;2023-02-12T04:18:26;3.50;99.90
3994;DHT22;2011;48.238;13.948;2023-02-12T04:21:02;3.50;99.90
3994;DHT22;2011;48.238;13.948;2023-02-12T04:23:43;3.50;99.90
3994;DHT22;2011;48.238;13.948;2023-02-12T04:26:19;3.50;99.90
3994;DHT22;2011;48.238;13.948;2023-02-12T04:28:56;3.50;99.90
3994;DHT22;2011;48.238;13.948;2023-02-12T04:31:28;3.50;99.90
3994;DHT22;2011;48.238;13.948;2023-02-12T04:34:04;3.50;99.90
3994;DHT22;2011;48.238;13.948;2023-02-12T04:36:36;3.50;99.90
3994;DHT22;2011;48.238;13.948;2023-02-12T04:39:08;3.50;99.90
3994;DHT22;2011;48.238;13.948;2023-02-12T04:41:37;3.50;99.90
3994;DHT22;2011;48.238;13.948;2023-02-12T04:44:17;3.50;99.90
3994;DHT22;2011;48.238;13.948;2023-02-12T04:46:45;3.50;99.90
3994;DHT22;2011;48.238;13.948;2023-02-12T04:49:15;3.50;99.90
3994;DHT22;2011;48.238;13.948;2023-02-12T04:51:43;3.50;99.90
3994;DHT22;2011;48.238;13.948;2023-02-12T04:54:11;3.50;99.90
3994;DHT22;2011;48.238;13.948;2023-02-12T04:56:37;3.50;99.90
3994;DHT22;2011;48.238;13.948;2023-02-12T04:59:05;3.50;99.90
3994;DHT22;2011;48.238;13.948;2023-02-12T05:01:33;3.50;99.90
3994;DHT22;2011;48.238;13.948;2023-02-12T05:04:01;3.50;99.90
3994;DHT22;2011;48.238;13.948;2023-02-12T05:06:30;3.50;99.90
3994;DHT22;2011;48.238;13.948;2023-02-12T05:08:57;3.60;99.90
3994;DHT22;2011;48.238;13.948;2023-02-12T05:11:24;3.60;99.90
3994;DHT22;2011;48.238;13.948;2023-02-12T05:13:51;3.60;99.90
3994;DHT22;2011;48.238;13.948;2023-02-12T05:16:19;3.70;99.90
3994;DHT22;2011;48.238;13.948;2023-02-12T05:18:46;3.70;99.90
3994;DHT22;2011;48.238;13.948;2023-02-12T05:21:14;3.70;99.90
3994;DHT22;2011;48.238;13.948;2023-02-12T05:23:42;3.80;99.90
3994;DHT22;2011;48.238;13.948;2023-02-12T05:26:12;3.80;99.90
3994;DHT22;2011;48.238;13.948;2023-02-12T05:28:39;3.80;99.90
3994;DHT22;2011;48.238;13.948;2023-02-12T05:31:09;3.90;99.90
3994;DHT22;2011;48.238;13.948;2023-02-12T05:33:36;3.90;99.90
3994;DHT22;2011;48.238;13.948;2023-02-12T05:36:04;3.80;99.90
3994;DHT22;2011;48.238;13.948;2023-02-12T05:38:31;3.80;99.90
3994;DHT22;2011;48.238;13.948;2023-02-12T05:41:03;3.80;99.90
3994;DHT22;2011;48.238;13.948;2023-02-12T05:43:31;3.80;99.90
3994;DHT22;2011;48.238;13.948;2023-02-12T05:45:58;3.80;99.90
3994;DHT22;2011;48.238;13.948;2023-02-12T05:48:25;3.80;99.90
3994;DHT22;2011;48.238;13.948;2023-02-12T05:50:52;3.80;99.90
3994;DHT22;2011;48.238;13.948;2023-02-12T05:53:19;3.80;99.90
3994;DHT22;2011;48.238;13.948;2023-02-12T05:55:47;3.80;99.90
3994;DHT22;2011;48.238;13.948;2023-02-12T05:58:15;3.80;99.90
3994;DHT22;2011;48.238;13.948;2023-02-12T06:00:42;3.80;99.90
3994;DHT22;2011;48.238;13.948;2023-02-12T06:03:09;3.80;99.90
3994;DHT22;2011;48.238;13.948;2023-02-12T06:05:36;3.80;99.90
3994;DHT22;2011;48.238;13.948;2023-02-12T06:08:03;3.80;99.90
3994;DHT22;2011;48.238;13.948;2023-02-12T06:10:30;3.80;99.90
3994;DHT22;2011;48.238;13.948;2023-02-12T06:12:57;3.80;99.90
3994;DHT22;2011;48.238;13.948;2023-02-12T06:15:25;3.80;99.90
3994;DHT22;2011;48.238;13.948;2023-02-12T06:17:52;3.80;99.90
3994;DHT22;2011;48.238;13.948;2023-02-12T06:20:19;3.90;99.90
3994;DHT22;2011;48.238;13.948;2023-02-12T06:22:46;3.90;99.90
3994;DHT22;2011;48.238;13.948;2023-02-12T06:25:13;3.90;99.90
3994;DHT22;2011;48.238;13.948;2023-02-12T06:27:39;3.90;99.90
3994;DHT22;2011;48.238;13.948;2023-02-12T06:30:07;4.00;99.90
3994;DHT22;2011;48.238;13.948;2023-02-12T06:32:36;4.00;99.90
3994;DHT22;2011;48.238;13.948;2023-02-12T06:35:03;4.00;99.90
3994;DHT22;2011;48.238;13.948;2023-02-12T06:37:30;4.00;99.90
3994;DHT22;2011;48.238;13.948;2023-02-12T06:40:01;4.00;99.90
3994;DHT22;2011;48.238;13.948;2023-02-12T06:42:28;4.00;99.90
3994;DHT22;2011;48.238;13.948;2023-02-12T06:44:55;4.00;99.90
3994;DHT22;2011;48.238;13.948;2023-02-12T06:47:22;4.10;99.90
3994;DHT22;2011;48.238;13.948;2023-02-12T06:49:50;4.10;99.90
3994;DHT22;2011;48.238;13.948;2023-02-12T06:52:17;4.10;99.90
3994;DHT22;2011;48.238;13.948;2023-02-12T06:54:45;4.00;99.90
3994;DHT22;2011;48.238;13.948;2023-02-12T06:57:12;4.00;99.90
3994;DHT22;2011;48.238;13.948;2023-02-12T06:59:39;4.00;99.90
3994;DHT22;2011;48.238;13.948;2023-02-12T07:02:07;4.00;99.90
3994;DHT22;2011;48.238;13.948;2023-02-12T07:04:36;4.00;99.90
3994;DHT22;2011;48.238;13.948;2023-02-12T07:07:05;3.90;99.90
3994;DHT22;2011;48.238;13.948;2023-02-12T07:09:32;3.90;99.90
3994;DHT22;2011;48.238;13.948;2023-02-12T07:11:59;3.90;99.90
3994;DHT22;2011;48.238;13.948;2023-02-12T07:14:26;4.00;99.90
3994;DHT22;2011;48.238;13.948;2023-02-12T07:16:53;4.00;99.90
3994;DHT22;2011;48.238;13.948;2023-02-12T07:19:21;4.00;99.90
3994;DHT22;2011;48.238;13.948;2023-02-12T07:21:48;4.00;99.90
3994;DHT22;2011;48.238;13.948;2023-02-12T07:24:16;4.10;99.90
3994;DHT22;2011;48.238;13.948;2023-02-12T07:26:43;4.10;99.90
3994;DHT22;2011;48.238;13.948;2023-02-12T07:29:10;4.10;99.90
3994;DHT22;2011;48.238;13.948;2023-02-12T07:31:37;4.10;99.90
3994;DHT22;2011;48.238;13.948;2023-02-12T07:34:04;4.10;99.90
3994;DHT22;2011;48.238;13.948;2023-02-12T07:36:32;4.10;99.90
3994;DHT22;2011;48.238;13.948;2023-02-12T07:38:59;4.10;99.90
3994;DHT22;2011;48.238;13.948;2023-02-12T07:41:29;4.20;99.90
3994;DHT22;2011;48.238;13.948;2023-02-12T07:43:57;4.10;99.90
3994;DHT22;2011;48.238;13.948;2023-02-12T07:46:27;4.10;99.90
3994;DHT22;2011;48.238;13.948;2023-02-12T07:48:55;4.10;99.90
3994;DHT22;2011;48.238;13.948;2023-02-12T07:51:23;4.10;99.90
3994;DHT22;2011;48.238;13.948;2023-02-12T07:53:50;4.20;99.90
3994;DHT22;2011;48.238;13.948;2023-02-12T07:56:19;4.10;99.90
3994;DHT22;2011;48.238;13.948;2023-02-12T07:58:48;4.20;99.90
3994;DHT22;2011;48.238;13.948;2023-02-12T08:01:18;4.20;99.90
3994;DHT22;2011;48.238;13.948;2023-02-12T08:03:46;4.30;99.90
3994;DHT22;2011;48.238;13.948;2023-02-12T08:06:15;4.30;99.90
3994;DHT22;2011;48.238;13.948;2023-02-12T08:08:42;4.30;99.90
3994;DHT22;2011;48.238;13.948;2023-02-12T08:11:11;4.30;99.90
3994;DHT22;2011;48.238;13.948;2023-02-12T08:13:38;4.40;99.90
3994;DHT22;2011;48.238;13.948;2023-02-12T08:16:08;4.40;99.90
3994;DHT22;2011;48.238;13.948;2023-02-12T08:18:35;4.40;99.90
3994;DHT22;2011;48.238;13.948;2023-02-12T08:21:03;4.50;99.90
3994;DHT22;2011;48.238;13.948;2023-02-12T08:23:31;4.50;99.90
3994;DHT22;2011;48.238;13.948;2023-02-12T08:26:09;4.50;99.90
3994;DHT22;2011;48.238;13.948;2023-02-12T08:28:38;4.50;99.90
3994;DHT22;2011;48.238;13.948;2023-02-12T08:31:08;4.50;99.90
3994;DHT22;2011;48.238;13.948;2023-02-12T08:33:35;4.50;99.90
3994;DHT22;2011;48.238;13.948;2023-02-12T08:36:05;4.50;99.90
3994;DHT22;2011;48.238;13.948;2023-02-12T08:38:32;4.50;99.90
3994;DHT22;2011;48.238;13.948;2023-02-12T08:41:00;4.50;99.90
3994;DHT22;2011;48.238;13.948;2023-02-12T08:43:28;4.50;99.90
3994;DHT22;2011;48.238;13.948;2023-02-12T08:46:00;4.60;99.90
3994;DHT22;2011;48.238;13.948;2023-02-12T08:48:28;4.50;99.90
3994;DHT22;2011;48.238;13.948;2023-02-12T08:50:55;4.60;99.90
3994;DHT22;2011;48.238;13.948;2023-02-12T08:53:23;4.60;99.90
3994;DHT22;2011;48.238;13.948;2023-02-12T08:55:50;4.60;99.90
3994;DHT22;2011;48.238;13.948;2023-02-12T08:58:17;4.60;99.90
3994;DHT22;2011;48.238;13.948;2023-02-12T09:00:44;4.60;99.90
3994;DHT22;2011;48.238;13.948;2023-02-12T09:03:11;4.60;99.90
3994;DHT22;2011;48.238;13.948;2023-02-12T09:05:40;4.60;99.90
3994;DHT22;2011;48.238;13.948;2023-02-12T09:08:07;4.60;99.90
3994;DHT22;2011;48.238;13.948;2023-02-12T09:10:37;4.70;99.90
3994;DHT22;2011;48.238;13.948;2023-02-12T09:13:04;4.70;99.90
3994;DHT22;2011;48.238;13.948;2023-02-12T09:15:34;4.80;99.90
3994;DHT22;2011;48.238;13.948;2023-02-12T09:18:01;4.80;99.90
3994;DHT22;2011;48.238;13.948;2023-02-12T09:20:29;4.80;99.90
3994;DHT22;2011;48.238;13.948;2023-02-12T09:22:58;4.80;99.90
3994;DHT22;2011;48.238;13.948;2023-02-12T09:25:25;4.80;99.90
3994;DHT22;2011;48.238;13.948;2023-02-12T09:27:53;4.80;99.90
3994;DHT22;2011;48.238;13.948;2023-02-12T09:30:20;4.80;99.90
3994;DHT22;2011;48.238;13.948;2023-02-12T09:32:47;4.80;99.90
3994;DHT22;2011;48.238;13.948;2023-02-12T09:35:14;4.80;99.90
3994;DHT22;2011;48.238;13.948;2023-02-12T09:37:43;4.80;99.90
3994;DHT22;2011;48.238;13.948;2023-02-12T09:40:18;4.80;99.90
3994;DHT22;2011;48.238;13.948;2023-02-12T09:43:05;4.80;99.90
3994;DHT22;2011;48.238;13.948;2023-02-12T09:45:38;4.80;99.90
3994;DHT22;2011;48.238;13.948;2023-02-12T09:48:21;4.80;99.90
3994;DHT22;2011;48.238;13.948;2023-02-12T09:50:53;4.90;99.90
3994;DHT22;2011;48.238;13.948;2023-02-12T09:53:23;4.90;99.90
3994;DHT22;2011;48.238;13.948;2023-02-12T09:55:52;5.00;99.90
3994;DHT22;2011;48.238;13.948;2023-02-12T09:58:28;5.00;99.90
3994;DHT22;2011;48.238;13.948;2023-02-12T10:00:57;5.10;99.90
3994;DHT22;2011;48.238;13.948;2023-02-12T10:03:25;5.00;99.90
3994;DHT22;2011;48.238;13.948;2023-02-12T10:05:59;5.00;99.90
3994;DHT22;2011;48.238;13.948;2023-02-12T10:08:53;5.00;99.90
3994;DHT22;2011;48.238;13.948;2023-02-12T10:11:42;5.00;99.90
3994;DHT22;2011;48.238;13.948;2023-02-12T10:14:28;5.10;99.90
3994;DHT22;2011;48.238;13.948;2023-02-12T10:17:07;5.10;99.90
3994;DHT22;2011;48.238;13.948;2023-02-12T10:20:00;5.20;99.90
3994;DHT22;2011;48.238;13.948;2023-02-12T10:22:38;5.20;99.90
3994;DHT22;2011;48.238;13.948;2023-02-12T10:25:16;5.30;99.90
3994;DHT22;2011;48.238;13.948;2023-02-12T10:27:51;5.30;99.90
3994;DHT22;2011;48.238;13.948;2023-02-12T10:30:21;5.30;99.90
3994;DHT22;2011;48.238;13.948;2023-02-12T10:32:52;5.30;99.90
3994;DHT22;2011;48.238;13.948;2023-02-12T10:35:21;5.40;99.90
3994;DHT22;2011;48.238;13.948;2023-02-12T10:37:54;5.40;99.90
3994;DHT22;2011;48.238;13.948;2023-02-12T10:40:24;5.40;99.90
3994;DHT22;2011;48.238;13.948;2023-02-12T10:42:57;5.40;99.90
3994;DHT22;2011;48.238;13.948;2023-02-12T10:45:28;5.50;99.90
3994;DHT22;2011;48.238;13.948;2023-02-12T10:48:04;5.50;99.90
3994;DHT22;2011;48.238;13.948;2023-02-12T10:50:39;5.50;99.90
3994;DHT22;2011;48.238;13.948;2023-02-12T10:53:14;5.50;99.90
3994;DHT22;2011;48.238;13.948;2023-02-12T10:55:42;5.50;99.90
3994;DHT22;2011;48.238;13.948;2023-02-12T10:58:19;5.60;99.90
3994;DHT22;2011;48.238;13.948;2023-02-12T11:00:55;5.70;99.90
3994;DHT22;2011;48.238;13.948;2023-02-12T11:03:27;5.80;99.90
3994;DHT22;2011;48.238;13.948;2023-02-12T11:05:54;5.80;99.90
3994;DHT22;2011;48.238;13.948;2023-02-12T11:08:28;5.80;99.90
3994;DHT22;2011;48.238;13.948;2023-02-12T11:11:02;5.80;99.90
3994;DHT22;2011;48.238;13.948;2023-02-12T11:13:31;5.80;99.90
3994;DHT22;2011;48.238;13.948;2023-02-12T11:15:58;5.90;99.90
3994;DHT22;2011;48.238;13.948;2023-02-12T11:18:28;5.90;99.90
3994;DHT22;2011;48.238;13.948;2023-02-12T11:21:00;5.90;99.90
3994;DHT22;2011;48.238;13.948;2023-02-12T11:23:29;5.90;99.90
3994;DHT22;2011;48.238;13.948;2023-02-12T11:25:59;6.00;99.90
3994;DHT22;2011;48.238;13.948;2023-02-12T11:28:26;6.00;99.90
3994;DHT22;2011;48.238;13.948;2023-02-12T11:30:57;6.10;99.90
3994;DHT22;2011;48.238;13.948;2023-02-12T11:33:29;6.20;99.90
3994;DHT22;2011;48.238;13.948;2023-02-12T11:35:59;6.10;99.90
3994;DHT22;2011;48.238;13.948;2023-02-12T11:38:31;6.20;99.90
3994;DHT22;2011;48.238;13.948;2023-02-12T11:41:06;6.10;99.90
3994;DHT22;2011;48.238;13.948;2023-02-12T11:43:34;6.10;99.90
3994;DHT22;2011;48.238;13.948;2023-02-12T11:46:06;6.10;99.90
3994;DHT22;2011;48.238;13.948;2023-02-12T11:48:35;6.10;99.90
3994;DHT22;2011;48.238;13.948;2023-02-12T11:51:05;6.20;99.90
3994;DHT22;2011;48.238;13.948;2023-02-12T11:53:36;6.20;99.90
3994;DHT22;2011;48.238;13.948;2023-02-12T11:56:08;6.20;99.90
3994;DHT22;2011;48.238;13.948;2023-02-12T11:58:35;6.30;99.90
3994;DHT22;2011;48.238;13.948;2023-02-12T12:01:14;6.30;99.90
3994;DHT22;2011;48.238;13.948;2023-02-12T12:03:51;6.40;99.90
3994;DHT22;2011;48.238;13.948;2023-02-12T12:06:28;6.50;99.90
3994;DHT22;2011;48.238;13.948;2023-02-12T12:09:01;6.50;99.90
3994;DHT22;2011;48.238;13.948;2023-02-12T12:11:35;6.60;99.90
3994;DHT22;2011;48.238;13.948;2023-02-12T12:14:08;6.70;99.90
3994;DHT22;2011;48.238;13.948;2023-02-12T12:16:46;6.70;99.90
3994;DHT22;2011;48.238;13.948;2023-02-12T12:19:37;6.70;99.90
3994;DHT22;2011;48.238;13.948;2023-02-12T12:25:19;6.80;99.90
3994;DHT22;2011;48.238;13.948;2023-02-12T12:27:56;6.80;99.90
3994;DHT22;2011;48.238;13.948;2023-02-12T12:30:44;6.90;99.90
3994;DHT22;2011;48.238;13.948;2023-02-12T12:33:21;6.90;99.90
3994;DHT22;2011;48.238;13.948;2023-02-12T12:35:59;6.90;99.90
3994;DHT22;2011;48.238;13.948;2023-02-12T12:38:41;6.80;99.90
3994;DHT22;2011;48.238;13.948;2023-02-12T12:41:19;6.90;99.90
3994;DHT22;2011;48.238;13.948;2023-02-12T12:43:57;6.90;99.90
3994;DHT22;2011;48.238;13.948;2023-02-12T12:46:43;6.90;99.90
3994;DHT22;2011;48.238;13.948;2023-02-12T12:49:36;7.00;99.90
3994;DHT22;2011;48.238;13.948;2023-02-12T12:52:16;7.00;99.90
3994;DHT22;2011;48.238;13.948;2023-02-12T12:55:02;7.10;99.90
3994;DHT22;2011;48.238;13.948;2023-02-12T12:57:38;7.10;99.90
3994;DHT22;2011;48.238;13.948;2023-02-12T13:00:35;7.30;99.90
3994;DHT22;2011;48.238;13.948;2023-02-12T13:03:40;7.40;99.90
3994;DHT22;2011;48.238;13.948;2023-02-12T13:06:29;7.40;99.90
3994;DHT22;2011;48.238;13.948;2023-02-12T13:09:23;7.50;99.90
3994;DHT22;2011;48.238;13.948;2023-02-12T13:12:07;7.50;99.90
3994;DHT22;2011;48.238;13.948;2023-02-12T13:14:44;7.50;99.90
3994;DHT22;2011;48.238;13.948;2023-02-12T13:17:17;7.50;99.90
3994;DHT22;2011;48.238;13.948;2023-02-12T13:19:56;7.40;99.90
3994;DHT22;2011;48.238;13.948;2023-02-12T13:22:31;7.30;99.90
3994;DHT22;2011;48.238;13.948;2023-02-12T13:25:04;7.20;99.90
3994;DHT22;2011;48.238;13.948;2023-02-12T13:27:35;7.30;99.90
3994;DHT22;2011;48.238;13.948;2023-02-12T13:30:15;7.30;99.90
3994;DHT22;2011;48.238;13.948;2023-02-12T13:32:45;7.20;99.90
3994;DHT22;2011;48.238;13.948;2023-02-12T13:35:17;7.20;99.90
3994;DHT22;2011;48.238;13.948;2023-02-12T13:37:48;7.30;99.90
3994;DHT22;2011;48.238;13.948;2023-02-12T13:40:20;7.30;99.90
3994;DHT22;2011;48.238;13.948;2023-02-12T13:42:50;7.30;99.90
3994;DHT22;2011;48.238;13.948;2023-02-12T13:45:29;7.30;99.90
3994;DHT22;2011;48.238;13.948;2023-02-12T13:48:19;7.30;99.90
3994;DHT22;2011;48.238;13.948;2023-02-12T13:50:55;7.40;99.90
3994;DHT22;2011;48.238;13.948;2023-02-12T13:53:33;7.40;99.90
3994;DHT22;2011;48.238;13.948;2023-02-12T13:56:06;7.50;99.90
3994;DHT22;2011;48.238;13.948;2023-02-12T13:58:49;7.70;99.90
3994;DHT22;2011;48.238;13.948;2023-02-12T14:01:41;7.90;99.90
3994;DHT22;2011;48.238;13.948;2023-02-12T14:04:27;8.00;99.90
3994;DHT22;2011;48.238;13.948;2023-02-12T14:06:58;8.00;99.90
3994;DHT22;2011;48.238;13.948;2023-02-12T14:09:34;8.10;99.90
3994;DHT22;2011;48.238;13.948;2023-02-12T14:12:04;8.30;99.90
3994;DHT22;2011;48.238;13.948;2023-02-12T14:14:35;8.20;99.90
3994;DHT22;2011;48.238;13.948;2023-02-12T14:17:41;8.20;99.90
3994;DHT22;2011;48.238;13.948;2023-02-12T14:20:23;8.20;99.90
3994;DHT22;2011;48.238;13.948;2023-02-12T14:23:22;8.20;99.90
3994;DHT22;2011;48.238;13.948;2023-02-12T14:26:06;8.30;99.90
3994;DHT22;2011;48.238;13.948;2023-02-12T14:28:49;8.30;99.90
3994;DHT22;2011;48.238;13.948;2023-02-12T14:31:41;8.40;99.90
3994;DHT22;2011;48.238;13.948;2023-02-12T14:34:37;8.30;99.90
3994;DHT22;2011;48.238;13.948;2023-02-12T14:37:14;8.40;99.90
3994;DHT22;2011;48.238;13.948;2023-02-12T14:39:42;8.40;99.90
3994;DHT22;2011;48.238;13.948;2023-02-12T14:42:42;8.50;99.90
3994;DHT22;2011;48.238;13.948;2023-02-12T14:45:29;8.40;99.90
3994;DHT22;2011;48.238;13.948;2023-02-12T14:47:56;8.30;99.90
3994;DHT22;2011;48.238;13.948;2023-02-12T14:50:36;8.20;99.90
3994;DHT22;2011;48.238;13.948;2023-02-12T14:53:11;8.10;99.90
3994;DHT22;2011;48.238;13.948;2023-02-12T14:55:45;8.20;99.90
3994;DHT22;2011;48.238;13.948;2023-02-12T14:58:18;8.20;99.90
3994;DHT22;2011;48.238;13.948;2023-02-12T15:00:47;8.20;99.90
3994;DHT22;2011;48.238;13.948;2023-02-12T15:03:21;8.20;99.90
3994;DHT22;2011;48.238;13.948;2023-02-12T15:05:56;8.10;99.90
3994;DHT22;2011;48.238;13.948;2023-02-12T15:08:30;8.00;99.90
3994;DHT22;2011;48.238;13.948;2023-02-12T15:11:08;7.90;99.90
3994;DHT22;2011;48.238;13.948;2023-02-12T15:13:48;7.70;99.90
3994;DHT22;2011;48.238;13.948;2023-02-12T15:16:25;7.50;99.90
3994;DHT22;2011;48.238;13.948;2023-02-12T15:18:58;7.40;99.90
3994;DHT22;2011;48.238;13.948;2023-02-12T15:21:28;7.20;99.90
3994;DHT22;2011;48.238;13.948;2023-02-12T15:24:01;7.10;99.90
3994;DHT22;2011;48.238;13.948;2023-02-12T15:26:30;7.10;99.90
3994;DHT22;2011;48.238;13.948;2023-02-12T15:29:00;7.00;99.90
3994;DHT22;2011;48.238;13.948;2023-02-12T15:31:29;7.00;99.90
3994;DHT22;2011;48.238;13.948;2023-02-12T15:33:58;6.90;99.90
3994;DHT22;2011;48.238;13.948;2023-02-12T15:36:28;6.80;99.90
3994;DHT22;2011;48.238;13.948;2023-02-12T15:38:58;6.60;99.90
3994;DHT22;2011;48.238;13.948;2023-02-12T15:41:28;6.50;99.90
3994;DHT22;2011;48.238;13.948;2023-02-12T15:44:03;6.30;99.90
3994;DHT22;2011;48.238;13.948;2023-02-12T15:46:30;6.20;99.90
3994;DHT22;2011;48.238;13.948;2023-02-12T15:48:57;6.00;99.90
3994;DHT22;2011;48.238;13.948;2023-02-12T15:51:27;5.80;99.90
3994;DHT22;2011;48.238;13.948;2023-02-12T15:53:56;5.70;99.90
3994;DHT22;2011;48.238;13.948;2023-02-12T15:56:25;5.50;99.90
3994;DHT22;2011;48.238;13.948;2023-02-12T15:58:55;5.20;99.90
3994;DHT22;2011;48.238;13.948;2023-02-12T16:01:26;5.10;99.90
3994;DHT22;2011;48.238;13.948;2023-02-12T16:03:55;4.90;99.90
3994;DHT22;2011;48.238;13.948;2023-02-12T16:06:23;4.80;99.90
3994;DHT22;2011;48.238;13.948;2023-02-12T16:08:57;4.70;99.90
3994;DHT22;2011;48.238;13.948;2023-02-12T16:11:25;4.60;99.90
3994;DHT22;2011;48.238;13.948;2023-02-12T16:13:57;4.60;99.90
3994;DHT22;2011;48.238;13.948;2023-02-12T16:16:27;4.50;99.90
3994;DHT22;2011;48.238;13.948;2023-02-12T16:19:06;4.40;99.90
3994;DHT22;2011;48.238;13.948;2023-02-12T16:21:34;4.40;99.90
3994;DHT22;2011;48.238;13.948;2023-02-12T16:24:04;4.30;99.90
3994;DHT22;2011;48.238;13.948;2023-02-12T16:26:45;4.30;99.90
3994;DHT22;2011;48.238;13.948;2023-02-12T16:29:15;4.30;99.90
3994;DHT22;2011;48.238;13.948;2023-02-12T16:31:54;4.20;99.90
3994;DHT22;2011;48.238;13.948;2023-02-12T16:34:31;4.10;99.90
3994;DHT22;2011;48.238;13.948;2023-02-12T16:36:58;4.10;99.90
3994;DHT22;2011;48.238;13.948;2023-02-12T16:40:05;4.10;99.90
3994;DHT22;2011;48.238;13.948;2023-02-12T16:42:35;4.00;99.90